Data for 06/10/2014

Time Sea-Level Adjusted Pressure Absolute Pressure Temperature Relative Humidity Dew Point   
(mb) (inHg) (mb) (inHg) (C) (F) (%) (C) (F)
00:05 1016 30 845 24.95 14.4 57.8 48 3.4 38.2
00:10 1016 30 845 24.95 14.4 58 48 3.7 38.7
00:15 1016 30 845 24.95 14.3 57.7 49 3.7 38.7
00:20 1016 30 845 24.95 14.1 57.4 49 3.7 38.7
00:25 1015 29.97 845 24.95 14 57.2 50 3.8 38.8
00:30 1016 30 845 24.95 13.9 56.9 53 4.4 39.9
00:35 1016 30 845 24.95 13.6 56.5 52 4 39.2
00:40 1016 30 845 24.95 13.4 56.1 53 4 39.2
00:45 1015 29.97 845 24.95 13.2 55.8 52 3.7 38.7
00:50 1016 30 845 24.95 13 55.4 53 3.6 38.5
00:55 1016 30 845 24.95 12.9 55.2 52 3.4 38.1
01:00 1015 29.97 845 24.95 12.8 55.1 52 3.2 37.8
01:05 1015 29.97 845 24.95 12.8 55 52 3.2 37.8
01:10 1016 30 845 24.95 12.7 54.9 51 3 37.5
01:15 1015 29.97 845 24.95 12.5 54.5 52 3.1 37.6
01:20 1015 29.97 845 24.95 12.3 54.1 54 3.4 38
01:25 1015 29.97 845 24.95 12.1 53.8 55 3.5 38.2
01:30 1015 29.97 845 24.95 11.9 53.4 57 3.7 38.6
01:35 1015 29.97 845 24.95 11.5 52.8 58 3.7 38.6
01:40 1015 29.97 845 24.95 11.3 52.3 59 3.6 38.5
01:45 1015 29.97 845 24.95 11.2 52.2 58 3.2 37.8
01:50 1015 29.97 845 24.95 11.4 52.4 56 3.1 37.5
01:55 1015 29.97 845 24.95 11.5 52.6 55 2.8 37.1
02:00 1015 29.97 845 24.95 11.5 52.7 56 3 37.4
02:05 1015 29.97 845 24.95 11.5 52.6 55 2.8 37
02:10 1015 29.97 845 24.95 11.5 52.7 55 2.7 36.9
02:15 1015 29.97 845 24.95 11.6 52.9 54 2.7 36.8
02:20 1015 29.97 845 24.95 11.6 52.9 54 2.7 36.8
02:25 1015 29.97 845 24.95 11.7 53 54 2.7 36.9
02:30 1015 29.97 845 24.95 11.6 53 54 2.8 37
02:35 1016 30 845 24.95 11.6 52.8 54 2.7 36.8
02:40 1016 30 845 24.95 11.5 52.8 53 2.5 36.4
02:45 1016 30 845 24.95 11.5 52.8 53 2.5 36.4
02:50 1016 30 845 24.95 11.5 52.8 53 2.5 36.4
02:55 1016 30 845 24.95 11.5 52.7 53 2.4 36.3
03:00 1016 30 845 24.95 11.6 52.9 53 2.4 36.4
03:05 1016 30 845 24.95 11.7 53.1 52 2.3 36.1
03:10 1016 30 845 24.95 11.6 52.8 53 2.4 36.3
03:15 1016 30 845 24.95 11.6 52.9 52 2.3 36.1
03:20 1016 30 845 24.95 11.9 53.3 52 2.3 36.2
03:25 1016 30 845 24.95 12.1 53.7 50 2.1 35.8
03:30 1016 30 845 24.95 12.3 54.1 50 2.1 35.8
03:35 1016 30 845 24.95 12.3 54.1 50 2.1 35.9
03:40 1016 30 845 24.95 12.3 54.2 49 2.1 35.7
03:45 1016 30 845 24.95 12.4 54.2 50 2.3 36.2
03:50 1016 30 845 24.95 12.3 54.1 50 2.3 36.2
03:55 1016 30 845 24.95 12.2 53.9 50 2.1 35.8
04:00 1016 30 845 24.95 12.1 53.8 52 2.6 36.7
04:05 1016 30 845 24.95 12 53.6 52 2.5 36.4
04:10 1016 30 845 24.95 11.9 53.4 52 2.5 36.4
04:15 1016 30 845 24.95 11.8 53.2 52 2.4 36.4
04:20 1016 30 845 24.95 11.6 52.8 53 2.4 36.4
04:25 1016 30 845 24.95 11.5 52.6 55 2.7 36.9
04:30 1016 30 845 24.95 11.3 52.3 55 2.7 36.8
04:35 1016 30 845 24.95 11.1 52 55 2.4 36.4
04:40 1016 30 845 24.95 11.1 51.9 54 2.1 35.7
04:45 1016 30 845 24.95 11.1 52 55 2.5 36.5
04:50 1016 30 845 24.95 11 51.8 55 2.4 36.4
04:55 1016 30 845 24.95 10.8 51.4 56 2.4 36.4
05:00 1016 30 845 24.95 10.7 51.2 56 2.4 36.3
05:05 1016 30 845 24.95 10.6 51 57 2.4 36.4
05:10 1016 30 845 24.95 10.3 50.5 58 2.5 36.4
05:15 1016 30 845 24.95 10 50 59 2.4 36.3
05:20 1016 30 845 24.95 9.9 49.8 60 2.4 36.4
05:25 1016 30 845 24.95 9.8 49.6 60 2.5 36.6
05:30 1016 30 845 24.95 9.7 49.4 61 2.6 36.6
05:35 1016 30 845 24.95 9.5 49.1 62 2.7 36.9
05:40 1016 30 845 24.95 9.4 49 60 2.2 35.9
05:45 1016 30 845 24.95 9.7 49.5 58 2 35.6
05:50 1016 30 845 24.95 9.9 49.9 56 1.7 35.1
05:55 1016 30 845 24.95 10.4 50.7 54 1.6 34.9
06:00 1016 30 845 24.95 10.7 51.2 54 1.9 35.4
06:05 1016 30 845 24.95 10.7 51.3 53 1.5 34.7
06:10 1016 30 845 24.95 10.9 51.6 53 1.8 35.3
06:15 1016 30 845 24.95 10.9 51.7 53 1.7 35
06:20 1016 30 845 24.95 11 51.8 54 2.1 35.9
06:25 1016 30 845 24.95 11 51.8 55 2.3 36.1
06:30 1016 30 845 24.95 11.1 52.1 54 2.3 36.2
06:35 1016 30 845 24.95 11.1 52 56 2.7 36.8
06:40 1016 30 845 24.95 11.2 52.1 57 2.9 37.2
06:45 1016 30 845 24.95 11.3 52.3 55 2.7 36.8
06:50 1016 30 845 24.95 12 53.6 53 2.8 37.1
06:55 1016 30 845 24.95 12.3 54.1 52 2.6 36.8
07:00 1016 30 845 24.95 12.6 54.7 49 2.4 36.3
07:05 1016 30 845 24.95 13.2 55.8 47 2.2 35.9
07:10 1016 30 845 24.95 14 57.1 44 1.9 35.5
07:15 1016 30 845 24.95 14.9 58.7 43 2.5 36.5
07:20 1016 30 845 24.95 14.7 58.5 44 2.7 36.8
07:25 1016 30 845 24.95 15 59 42 2.2 35.9
07:30 1016 30 845 24.95 14.9 58.8 38 0.9 33.7
07:35 1016 30 845 24.95 15.1 59.1 39 1.3 34.4
07:40 1016 30 845 24.95 15.4 59.7 37 0.7 33.3
07:45 1016 30 845 24.95 15.2 59.4 44 3.2 37.8
07:50 1016 30 845 24.95 14.8 58.7 44 2.9 37.3
07:55 1016 30 845 24.95 14.7 58.5 42 2 35.6
08:00 1015 29.97 845 24.95 15.3 59.5 40 1.8 35.3
08:05 1016 30 845 24.95 15.1 59.1 43 2.6 36.7
08:10 1015 29.97 845 24.95 15.1 59.2 42 2.5 36.4
08:15 1015 29.97 845 24.95 15 58.9 39 1.1 34
08:20 1015 29.97 845 24.95 15 58.9 40 1.5 34.8
08:25 1015 29.97 845 24.95 15.1 59.3 41 2.2 35.9
08:30 1015 29.97 845 24.95 15.6 60.1 38 1.6 34.8
08:35 1015 29.97 844 24.92 15.4 59.8 40 1.9 35.3
08:40 1015 29.97 844 24.92 15.8 60.4 40 2.2 35.9
08:45 1015 29.97 844 24.92 15.8 60.5 40 2.2 36
08:50 1015 29.97 844 24.92 16.2 61.1 37 1.6 34.8
08:55 1015 29.97 844 24.92 17 62.6 34 1.2 34.2
09:00 1015 29.97 844 24.92 17.4 63.4 34 1.5 34.8
09:05 1015 29.97 844 24.92 17.6 63.7 32 1 33.8
09:10 1015 29.97 844 24.92 17.4 63.4 34 1.5 34.7
09:15 1015 29.97 844 24.92 17.2 63 34 1.3 34.3
09:20 1015 29.97 844 24.92 17 62.5 39 2.9 37.3
09:25 1015 29.97 844 24.92 16.9 62.4 44 4.7 40.5
09:30 1015 29.97 844 24.92 16.9 62.3 45 4.8 40.7
09:35 1015 29.97 844 24.92 16.8 62.2 40 3.2 37.8
09:40 1015 29.97 844 24.92 16.7 62 41 3.6 38.5
09:45 1015 29.97 844 24.92 16.9 62.5 38 2.7 36.9
09:50 1015 29.97 844 24.92 17.3 63.1 34 1.5 34.8
09:55 1015 29.97 844 24.92 17.6 63.7 34 1.9 35.4
10:00 1014 29.94 844 24.92 17.8 64.1 32 1.1 34.1
10:05 1014 29.94 844 24.92 17.4 63.3 33 1.2 34.1
10:10 1014 29.94 844 24.92 17.5 63.4 34 1.5 34.6
10:15 1014 29.94 844 24.92 17.5 63.6 31 0.5 32.9
10:20 1014 29.94 844 24.92 18.4 65.2 30 0.7 33.3
10:25 1014 29.94 844 24.92 19.1 66.3 29 0.6 33
10:30 1014 29.94 844 24.92 19.6 67.3 28 0.5 33
10:35 1014 29.94 844 24.92 18.4 65 30 0.6 33.1
10:40 1014 29.94 843 24.89 17.9 64.2 32 1.1 34
10:45 1014 29.94 843 24.89 18.2 64.8 29 -0 32
10:50 1014 29.94 843 24.89 19.2 66.5 27 0.1 32.1
10:55 1014 29.94 843 24.89 19.3 66.7 27 0 32.1
11:00 1014 29.94 843 24.89 18.7 65.7 24 -1.9 28.6
11:05 1014 29.94 843 24.89 19.1 66.4 24 -2 28.4
11:10 1014 29.94 843 24.89 19.7 67.4 23 -2.1 28.2
11:15 1014 29.94 843 24.89 19.9 67.8 23 -1.7 28.9
11:20 1014 29.94 843 24.89 20.3 68.6 22 -2 28.4
11:25 1014 29.94 843 24.89 20.8 69.4 22 -1.8 28.7
11:30 1014 29.94 843 24.89 20.4 68.8 24 -0.7 30.7
11:35 1014 29.94 843 24.89 20.6 69.1 22 -1.9 28.6
11:40 1014 29.94 843 24.89 21.2 70.1 21 -1.6 29.2
11:45 1014 29.94 843 24.89 21.6 70.8 21 -1.7 28.9
11:50 1014 29.94 843 24.89 22.1 71.7 20 -1.5 29.4
11:55 1014 29.94 843 24.89 21.6 70.9 23 -0.4 31.3
12:00 1014 29.94 843 24.89 21.3 70.3 24 0.1 32.2
12:05 1014 29.94 843 24.89 19.4 67 27 -0 31.9
12:10 1014 29.94 843 24.89 19.5 67 25 -0.7 30.8
12:15 1014 29.94 843 24.89 20.5 68.9 25 0.1 32.3
12:20 1014 29.94 843 24.89 20.9 69.7 25 0.4 32.7
12:25 1013 29.91 843 24.89 21.3 70.3 23 -0.2 31.6
12:30 1013 29.91 843 24.89 21.7 71.1 23 0 32.1
12:35 1013 29.91 842 24.86 21 69.9 24 -0 31.9
12:40 1013 29.91 842 24.86 21.5 70.7 24 0.4 32.7
12:45 1013 29.91 842 24.86 20.9 69.6 25 0.1 32.2
12:50 1013 29.91 842 24.86 20.8 69.5 25 0.2 32.4
12:55 1013 29.91 842 24.86 20.5 68.9 25 0 32
13:00 1013 29.91 842 24.86 21.1 70 24 -0.2 31.7
13:05 1013 29.91 842 24.86 21.2 70.1 24 0.2 32.3
13:10 1013 29.91 842 24.86 22.1 71.7 24 0.7 33.2
13:15 1013 29.91 842 24.86 21.4 70.6 23 -0.6 30.9
13:20 1013 29.91 842 24.86 21.5 70.7 23 -0.2 31.7
13:25 1013 29.91 842 24.86 21.5 70.6 23 -0.5 31.2
13:30 1013 29.91 842 24.86 22 71.7 22 -0.7 30.8
13:35 1013 29.91 842 24.86 22.4 72.3 22 -0.2 31.7
13:40 1013 29.91 842 24.86 22.5 72.5 22 -0 32
13:45 1013 29.91 842 24.86 22.2 71.9 22 -0.4 31.2
13:50 1013 29.91 842 24.86 22.3 72.1 22 -0.2 31.7
13:55 1013 29.91 842 24.86 22.5 72.5 23 0.5 32.9
14:00 1013 29.91 842 24.86 21.7 71 24 0.7 33.2
14:05 1013 29.91 842 24.86 21.6 70.8 23 -0.1 31.8
14:10 1013 29.91 842 24.86 22.3 72.2 22 0 32
14:15 1013 29.91 842 24.86 22.6 72.6 22 -0.3 31.5
14:20 1013 29.91 842 24.86 22.8 73.1 22 0.3 32.6
14:25 1013 29.91 842 24.86 21.7 71.1 24 0.4 32.7
14:30 1013 29.91 842 24.86 21.1 69.9 24 -0.1 31.9
14:35 1013 29.91 842 24.86 22.3 72.1 22 -0.1 31.8
14:40 1013 29.91 842 24.86 22.8 73 22 0.4 32.7
14:45 1013 29.91 842 24.86 22.7 72.9 22 -0.1 31.9
14:50 1013 29.91 842 24.86 22.6 72.7 23 0.8 33.4
14:55 1013 29.91 842 24.86 21.7 71 24 0.1 32.3
15:00 1013 29.91 842 24.86 21.9 71.3 24 0.3 32.6
15:05 1013 29.91 842 24.86 22 71.7 23 0.2 32.4
15:10 1013 29.91 842 24.86 22.1 71.7 23 -0.1 31.8
15:15 1013 29.91 842 24.86 22.8 73.1 22 0.3 32.5
15:20 1013 29.91 842 24.86 22.5 72.4 24 0.8 33.5
15:25 1013 29.91 842 24.86 22.5 72.5 23 0.6 33.1
15:30 1013 29.91 842 24.86 22.4 72.2 22 -0.3 31.4
15:35 1013 29.91 842 24.86 22 71.5 23 0.4 32.7
15:40 1013 29.91 842 24.86 22.2 72 22 -0.3 31.5
15:45 1012 29.88 842 24.86 22 71.6 22 -0.4 31.3
15:50 1012 29.88 842 24.86 22.7 72.9 21 -0.4 31.2
15:55 1012 29.88 842 24.86 22.6 72.6 23 0.4 32.8
16:00 1012 29.88 842 24.86 22.7 72.9 22 0.1 32.1
16:05 1012 29.88 842 24.86 22.1 71.8 23 0.3 32.5
16:10 1012 29.88 841 24.83 21.8 71.2 24 0.6 33.1
16:15 1012 29.88 841 24.83 22.4 72.3 23 0.4 32.6
16:20 1012 29.88 841 24.83 22.9 73.2 22 0.2 32.4
16:25 1012 29.88 841 24.83 23 73.4 21 -0.6 31
16:30 1012 29.88 841 24.83 23.1 73.5 22 0.3 32.6
16:35 1012 29.88 841 24.83 22.4 72.4 22 -0.2 31.6
16:40 1012 29.88 841 24.83 21.6 70.8 23 -0.3 31.5
16:45 1012 29.88 841 24.83 22.2 71.9 21 -0.7 30.8
16:50 1012 29.88 841 24.83 22.5 72.4 21 -0.6 31
16:55 1012 29.88 841 24.83 22.3 72.2 21 -0.9 30.5
17:00 1012 29.88 841 24.83 22 71.6 20 -1.4 29.4
17:05 1012 29.88 841 24.83 22.4 72.3 21 -0.9 30.3
17:10 1012 29.88 841 24.83 22.2 71.9 21 -1.1 30
17:15 1012 29.88 841 24.83 21.6 70.9 22 -0.7 30.7
17:20 1012 29.88 841 24.83 21.6 70.8 22 -0.8 30.6
17:25 1012 29.88 841 24.83 21.3 70.4 23 -0.6 31
17:30 1012 29.88 841 24.83 20.9 69.7 23 -0.6 30.9
17:35 1012 29.88 841 24.83 20.9 69.6 24 -0.5 31.1
17:40 1012 29.88 841 24.83 20.7 69.3 21 -2.1 28.3
17:45 1012 29.88 841 24.83 20.4 68.8 20 -3.1 26.5
17:50 1012 29.88 842 24.86 20.5 68.8 21 -2.6 27.2
17:55 1013 29.91 842 24.86 20.5 68.8 23 -1.4 29.4
18:00 1012 29.88 841 24.83 20.2 68.4 23 -1.5 29.3
18:05 1012 29.88 841 24.83 20.1 68.2 24 -1.1 30
18:10 1012 29.88 841 24.83 19.7 67.5 24 -1.5 29.3
18:15 1012 29.88 841 24.83 20 67.9 22 -2 28.4
18:20 1012 29.88 841 24.83 20.4 68.7 22 -2 28.4
18:25 1012 29.88 841 24.83 20.2 68.3 22 -2.2 28
18:30 1012 29.88 841 24.83 19.8 67.6 24 -1.4 29.4
18:35 1012 29.88 841 24.83 19.7 67.4 24 -1.5 29.3
18:40 1012 29.88 841 24.83 19.7 67.4 23 -1.7 28.9
18:45 1012 29.88 841 24.83 19.4 67 25 -0.7 30.7
18:50 1012 29.88 841 24.83 19.3 66.8 28 0.6 33.1
18:55 1012 29.88 841 24.83 19.1 66.3 29 0.9 33.6
19:00 1012 29.88 842 24.86 18.8 65.9 32 1.9 35.5
19:05 1012 29.88 842 24.86 18.5 65.3 32 1.7 35
19:10 1013 29.91 842 24.86 18.4 65.2 31 1.2 34.2
19:15 1013 29.91 842 24.86 18.5 65.3 30 0.6 33.1
19:20 1013 29.91 842 24.86 18.6 65.5 30 0.8 33.5
19:25 1013 29.91 842 24.86 18.6 65.5 30 0.8 33.5
19:30 1013 29.91 842 24.86 18.5 65.4 32 1.9 35.4
19:35 1013 29.91 843 24.89 18.4 65.2 25 -1.9 28.5
19:40 1014 29.94 843 24.89 18.4 65.1 25 -2 28.4
19:45 1013 29.91 843 24.89 18.4 65 22 -3.6 25.5
19:50 1013 29.91 843 24.89 18.5 65.3 23 -3.1 26.4
19:55 1014 29.94 843 24.89 18.4 65.2 23 -2.8 27
20:00 1014 29.94 843 24.89 18.2 64.7 25 -2.2 28.1
20:05 1014 29.94 843 24.89 17.9 64.3 26 -1.8 28.7
20:10 1014 29.94 843 24.89 17.6 63.6 27 -1.7 29
20:15 1014 29.94 843 24.89 17.4 63.3 28 -1.2 29.8
20:20 1014 29.94 843 24.89 17.2 62.9 28 -1.5 29.2
20:25 1014 29.94 843 24.89 17.1 62.8 26 -2.4 27.7
20:30 1014 29.94 843 24.89 17.2 62.9 27 -2 28.3
20:35 1014 29.94 843 24.89 16.9 62.5 27 -2 28.3
20:40 1014 29.94 844 24.92 16.8 62.3 28 -1.5 29.3
20:45 1015 29.97 844 24.92 16.8 62.2 29 -1.3 29.6
20:50 1015 29.97 844 24.92 16.6 62 29 -1.5 29.2
20:55 1015 29.97 844 24.92 16.4 61.5 29 -1.5 29.2
21:00 1015 29.97 844 24.92 16.6 61.8 30 -1 30.1
21:05 1015 29.97 844 24.92 16.4 61.5 34 0.5 32.8
21:10 1015 29.97 845 24.95 15.8 60.4 36 0.7 33.3
21:15 1016 30 845 24.95 15.5 59.8 38 1.3 34.4
21:20 1016 30 845 24.95 15.2 59.4 41 2.2 36
21:25 1016 30 845 24.95 14.7 58.4 43 2.5 36.4
21:30 1016 30 845 24.95 14.3 57.8 48 3.4 38.1
21:35 1016 30 845 24.95 14 57.2 49 3.4 38.2
21:40 1016 30 845 24.95 13.7 56.7 50 3.6 38.5
21:45 1016 30 845 24.95 13.5 56.3 51 3.8 38.8
21:50 1016 30 845 24.95 13.4 56 53 4 39.2
21:55 1016 30 846 24.98 13.4 56 52 3.7 38.6
22:00 1017 30.03 846 24.98 13.3 55.9 51 3.4 38.2
22:05 1017 30.03 846 24.98 13.2 55.8 55 4.5 40.2
22:10 1017 30.03 846 24.98 13 55.4 58 5.1 41.1
22:15 1017 30.03 846 24.98 12.8 55.1 58 4.8 40.6
22:20 1017 30.03 846 24.98 12.5 54.4 61 5.1 41.2
22:25 1017 30.03 847 25.01 12.1 53.7 69 6.6 44
22:30 1017 30.03 847 25.01 11.7 53 72 6.7 44.1
22:35 1017 30.03 847 25.01 11.3 52.3 69 5.8 42.4
22:40 1017 30.03 846 24.98 10.9 51.7 71 6 42.8
22:45 1017 30.03 847 25.01 10.9 51.5 77 6.9 44.5
22:50 1018 30.06 847 25.01 10.6 51.1 75 6.5 43.6
22:55 1018 30.06 847 25.01 10.5 50.9 77 6.7 44
23:00 1018 30.06 847 25.01 10.5 50.9 73 5.9 42.6
23:05 1018 30.06 847 25.01 10.6 51.2 78 6.9 44.4
23:10 1018 30.06 847 25.01 10.7 51.2 68 5.1 41.2
23:15 1018 30.06 847 25.01 10.7 51.2 75 6.5 43.7
23:20 1018 30.06 847 25.01 10.6 51 80 7.2 45
23:25 1018 30.06 847 25.01 10.4 50.7 73 5.8 42.4
23:30 1018 30.06 847 25.01 10.1 50.1 78 6.4 43.5
23:35 1018 30.06 847 25.01 9.9 49.8 75 5.7 42.2
23:40 1018 30.06 847 25.01 9.7 49.4 78 6.1 43
23:45 1018 30.06 847 25.01 9.4 48.9 79 5.9 42.7
23:50 1018 30.06 847 25.01 9.3 48.7 79 5.8 42.4
23:55 1018 30.06 847 25.01 9.1 48.4 83 6.4 43.5
24:00 1018 30.06 847 25.01 8.8 47.8 84 6.3 43.3